Time;durP1;ratioP1;P1;durP2;ratioP2;P2;SDS_P1;SDS_P2;PMS_P1;PMS_P2;Temp;Humidity;BMP_temperature;BMP_pressure;BME280_temperature;BME280_humidity;BME280_pressure;Samples;Min_cycle;Max_cycle;Signal;HPM_P1;HPM_P2
2022/12/28 00:01:18;;;;;;;12.18;6.10;;;;;;;4.46;100.00;101138.03;5083912;28;20563;-71
2022/12/28 00:03:48;;;;;;;11.57;6.45;;;;;;;4.51;100.00;101136.25;5084251;28;20044;-71
2022/12/28 00:06:15;;;;;;;12.57;6.35;;;;;;;4.43;100.00;101131.06;5081805;28;20127;-71
2022/12/28 00:08:42;;;;;;;10.85;6.38;;;;;;;4.27;100.00;101118.97;5092387;28;20053;-70
2022/12/28 00:11:17;;;;;;;15.05;7.03;;;;;;;4.23;100.00;101112.06;5085532;28;20411;-71
2022/12/28 00:13:58;;;;;;;13.32;6.38;;;;;;;4.31;100.00;101127.69;5083081;28;20083;-70
2022/12/28 00:16:31;;;;;;;14.93;6.65;;;;;;;4.21;100.00;101098.97;5083941;28;20072;-71
2022/12/28 00:19:00;;;;;;;12.25;6.95;;;;;;;4.38;100.00;101116.28;5081056;28;20055;-71
2022/12/28 00:21:27;;;;;;;13.75;7.00;;;;;;;4.27;100.00;101098.00;5078893;28;20090;-70
2022/12/28 00:23:56;;;;;;;14.25;7.10;;;;;;;4.29;100.00;101105.88;5085884;28;20149;-72
2022/12/28 00:26:25;;;;;;;14.45;6.65;;;;;;;4.34;100.00;101106.69;5083083;28;20169;-70
2022/12/28 00:28:51;;;;;;;16.30;7.22;;;;;;;4.37;100.00;101098.81;5085147;28;20048;-73
2022/12/28 00:31:27;;;;;;;13.25;6.88;;;;;;;4.38;100.00;101088.31;5080538;28;20048;-72
2022/12/28 00:33:54;;;;;;;11.30;6.32;;;;;;;4.40;100.00;101080.41;5082933;28;20052;-70
2022/12/28 00:36:20;;;;;;;11.15;6.72;;;;;;;4.39;100.00;101076.06;5090030;28;20050;-70
2022/12/28 00:38:47;;;;;;;13.55;6.90;;;;;;;4.42;100.00;101069.00;5093869;28;20766;-70
2022/12/28 00:41:13;;;;;;;13.07;6.45;;;;;;;4.44;100.00;101059.38;5082077;27;20067;-72
2022/12/28 00:43:40;;;;;;;11.95;6.95;;;;;;;4.53;100.00;101053.16;5088349;28;20051;-71
2022/12/28 00:46:08;;;;;;;11.18;6.60;;;;;;;4.53;100.00;101046.16;5079726;28;20052;-71
2022/12/28 00:48:35;;;;;;;13.80;6.13;;;;;;;4.49;100.00;101049.72;5086430;28;20488;-71
2022/12/28 00:51:07;;;;;;;12.98;6.80;;;;;;;4.42;100.00;101042.78;5075492;28;20103;-72
2022/12/28 00:53:34;;;;;;;11.57;7.15;;;;;;;4.17;100.00;101016.00;5090485;28;20090;-72
2022/12/28 00:56:08;;;;;;;12.70;6.90;;;;;;;4.27;100.00;101037.72;5086592;28;20048;-72
2022/12/28 00:58:35;;;;;;;14.15;7.38;;;;;;;4.26;100.00;101032.47;5086318;28;20496;-72
2022/12/28 01:01:03;;;;;;;15.35;7.53;;;;;;;4.19;100.00;101029.06;5082124;27;20139;-70
2022/12/28 01:03:32;;;;;;;9.32;6.97;;;;;;;4.16;100.00;101019.50;5080389;27;20497;-70
2022/12/28 01:06:03;;;;;;;13.70;7.10;;;;;;;4.26;100.00;101008.88;5079196;28;20042;-71
2022/12/28 01:08:29;;;;;;;12.30;6.78;;;;;;;4.32;100.00;101014.06;5082247;28;20048;-71
2022/12/28 01:10:56;;;;;;;16.13;7.75;;;;;;;4.20;100.00;101004.59;5092165;28;20051;-71
2022/12/28 01:13:24;;;;;;;14.27;7.35;;;;;;;4.30;100.00;101007.97;5082606;28;20076;-71
2022/12/28 01:15:51;;;;;;;13.27;7.18;;;;;;;4.33;100.00;100998.31;5085632;28;20086;-71
2022/12/28 01:18:18;;;;;;;11.30;7.20;;;;;;;4.37;100.00;101002.66;5087916;28;20044;-71
2022/12/28 01:20:45;;;;;;;15.45;7.53;;;;;;;4.44;100.00;101006.94;5085167;28;20040;-71
2022/12/28 01:23:11;;;;;;;12.35;7.15;;;;;;;4.47;100.00;101001.66;5080217;28;20291;-70
2022/12/28 01:25:38;;;;;;;12.48;7.22;;;;;;;4.42;100.00;100989.47;5081896;28;20054;-70
2022/12/28 01:28:05;;;;;;;13.40;7.55;;;;;;;4.33;100.00;100982.59;5087521;27;20058;-70
2022/12/28 01:30:31;;;;;;;12.50;7.22;;;;;;;4.35;100.00;100982.59;5085470;28;20044;-70
2022/12/28 01:32:58;;;;;;;12.43;7.15;;;;;;;4.28;100.00;100952.94;5090371;28;20060;-71
2022/12/28 01:35:25;;;;;;;13.05;7.30;;;;;;;4.43;100.00;100965.84;5089405;28;20062;-71
2022/12/28 01:37:52;;;;;;;13.38;7.80;;;;;;;4.51;100.00;100968.38;5087304;28;20044;-71
2022/12/28 01:40:18;;;;;;;12.10;6.90;;;;;;;4.56;100.00;100970.03;5085098;28;20040;-72
2022/12/28 01:42:45;;;;;;;12.32;7.20;;;;;;;4.48;100.00;100947.44;5084267;28;20040;-72
2022/12/28 01:45:17;;;;;;;12.15;7.38;;;;;;;4.54;100.00;100956.09;5076087;28;20523;-72
2022/12/28 01:47:46;;;;;;;13.02;6.90;;;;;;;4.61;100.00;100963.88;5035467;28;1224422;-72
2022/12/28 01:50:18;;;;;;;14.90;7.40;;;;;;;4.70;100.00;100975.13;5081588;28;20053;-70
2022/12/28 01:52:54;;;;;;;15.27;7.78;;;;;;;4.65;100.00;100970.81;5082487;28;20105;-72
2022/12/28 01:55:27;;;;;;;12.93;7.75;;;;;;;4.51;100.00;100942.16;5086884;28;20058;-72
2022/12/28 01:58:18;;;;;;;12.85;7.43;;;;;;;4.64;100.00;100958.59;5078147;28;20044;-72
2022/12/28 02:00:44;;;;;;;14.13;7.20;;;;;;;4.66;100.00;100959.44;5081224;28;20480;-71
2022/12/28 02:03:20;;;;;;;12.48;7.78;;;;;;;4.51;100.00;100932.53;5087192;28;20098;-70
2022/12/28 02:05:50;;;;;;;12.85;7.57;;;;;;;4.65;100.00;100949.84;5083235;28;20487;-70
2022/12/28 02:08:25;;;;;;;12.27;7.78;;;;;;;4.68;100.00;100947.19;5082803;28;20083;-70
2022/12/28 02:10:52;;;;;;;14.75;8.27;;;;;;;4.48;100.00;100922.09;5091781;28;20055;-70
2022/12/28 02:13:21;;;;;;;18.38;9.10;;;;;;;4.54;100.00;100943.00;5083619;28;20636;-70
2022/12/28 02:15:50;;;;;;;18.45;8.93;;;;;;;4.50;100.00;100951.78;5082415;28;20040;-71
2022/12/28 02:18:19;;;;;;;17.88;8.75;;;;;;;4.28;100.00;100923.22;5084332;28;20058;-71
2022/12/28 02:21:08;;;;;;;13.85;9.60;;;;;;;4.39;100.00;100953.69;5078681;28;20500;-70
2022/12/28 02:23:53;;;;;;;17.15;9.80;;;;;;;4.34;100.00;100963.34;5085327;28;20097;-72
2022/12/28 02:26:35;;;;;;;19.33;9.35;;;;;;;4.35;100.00;100946.75;5084086;28;20046;-69
2022/12/28 02:29:13;;;;;;;20.55;9.75;;;;;;;4.33;100.00;100916.19;5092984;28;20131;-70
2022/12/28 02:31:59;;;;;;;16.30;9.43;;;;;;;4.45;100.00;100922.13;5083694;28;20048;-70
2022/12/28 02:34:41;;;;;;;14.10;9.68;;;;;;;4.48;100.00;100924.72;5081602;28;20454;-70
2022/12/28 02:37:21;;;;;;;13.75;8.98;;;;;;;4.53;100.00;100922.91;5087552;28;20514;-70
2022/12/28 02:39:53;;;;;;;14.05;9.55;;;;;;;4.54;100.00;100915.91;5088256;28;20055;-70
2022/12/28 02:42:23;;;;;;;14.85;9.60;;;;;;;4.57;100.00;100916.69;5087602;28;20400;-70
2022/12/28 02:50:21;;;;;;;15.45;10.02;;;;;;;4.48;100.00;100884.50;5074631;28;20132;-70
2022/12/28 02:53:06;;;;;;;15.38;9.63;;;;;;;4.53;100.00;100885.31;5096255;28;20047;-70
2022/12/28 02:56:06;;;;;;;15.18;9.73;;;;;;;4.57;100.00;100882.59;5078660;28;20059;-70
2022/12/28 02:58:55;;;;;;;12.52;9.43;;;;;;;4.49;100.00;100855.63;5080701;28;20044;-71
2022/12/28 03:01:37;;;;;;;16.27;10.02;;;;;;;4.58;100.00;100876.47;5082696;28;20055;-71
2022/12/28 03:04:09;;;;;;;17.10;10.05;;;;;;;4.55;100.00;100881.78;5086778;28;20456;-70
2022/12/28 03:10:10;;;;;;;16.33;9.70;;;;;;;4.68;100.00;100871.09;5083012;28;20056;-72
2022/12/28 03:12:55;;;;;;;16.70;10.35;;;;;;;4.51;100.00;100861.72;5084136;28;20502;-72
2022/12/28 03:15:29;;;;;;;21.20;10.30;;;;;;;4.30;100.00;100843.69;5085605;28;20047;-72
2022/12/28 03:32:13;;;;;;;17.73;10.13;;;;;;;4.24;100.00;100825.44;5075583;28;20040;-72
2022/12/28 03:34:42;;;;;;;16.10;9.57;;;;;;;4.39;100.00;100843.56;5081107;28;20174;-71
2022/12/28 03:37:17;;;;;;;19.23;10.20;;;;;;;4.41;100.00;100830.41;5078841;28;20044;-71
2022/12/28 03:39:51;;;;;;;17.17;10.10;;;;;;;4.47;100.00;100831.19;5077500;28;20053;-71
2022/12/28 03:45:21;;;;;;;19.20;10.02;;;;;;;4.37;100.00;100803.38;5075964;28;20722;-71
2022/12/28 03:48:08;;;;;;;15.48;9.32;;;;;;;4.48;100.00;100817.19;5078227;28;20131;-70
2022/12/28 03:50:38;;;;;;;14.80;9.30;;;;;;;4.51;100.00;100797.94;5075729;28;20642;-71
2022/12/28 03:53:05;;;;;;;17.20;9.15;;;;;;;4.68;100.00;100813.41;5070674;28;20041;-71
2022/12/28 03:55:32;;;;;;;15.63;8.65;;;;;;;4.73;100.00;100801.03;5082936;28;20062;-71
2022/12/28 03:57:58;;;;;;;12.63;8.65;;;;;;;4.79;100.00;100798.34;5082984;28;20506;-72
2022/12/28 04:00:25;;;;;;;15.52;8.88;;;;;;;4.78;100.00;100786.97;5067549;28;20398;-72
2022/12/28 04:02:51;;;;;;;12.40;7.93;;;;;;;4.84;100.00;100780.75;5077770;28;20119;-71
2022/12/28 04:05:20;;;;;;;12.40;8.15;;;;;;;4.88;100.00;100777.16;5081196;28;20067;-71
2022/12/28 04:07:46;;;;;;;11.65;7.80;;;;;;;4.90;100.00;100772.75;5074541;28;20047;-71
2022/12/28 04:10:13;;;;;;;17.40;8.05;;;;;;;4.80;100.00;100748.47;5084387;28;20134;-71
2022/12/28 04:12:40;;;;;;;13.23;7.75;;;;;;;4.96;100.00;100774.41;5072983;28;20097;-71
2022/12/28 04:15:07;;;;;;;13.70;7.90;;;;;;;5.04;100.00;100778.63;5080228;28;20480;-71
2022/12/28 04:17:33;;;;;;;14.25;7.32;;;;;;;5.06;100.00;100775.97;5075337;28;20049;-70
2022/12/28 04:20:00;;;;;;;10.82;6.97;;;;;;;5.06;100.00;100776.84;5078223;28;20048;-71
2022/12/28 04:22:26;;;;;;;13.48;8.07;;;;;;;4.98;100.00;100770.88;5079832;28;20036;-71
2022/12/28 04:24:53;;;;;;;11.45;7.53;;;;;;;4.98;100.00;100773.50;5080912;28;20131;-71
2022/12/28 04:27:22;;;;;;;12.88;7.85;;;;;;;4.90;100.00;100764.88;5078629;28;20087;-71
2022/12/28 04:29:49;;;;;;;12.93;8.00;;;;;;;4.89;100.00;100771.03;5082994;28;20097;-71
2022/12/28 04:32:16;;;;;;;12.82;8.43;;;;;;;4.87;100.00;100768.47;5074728;28;20373;-72
2022/12/28 04:34:42;;;;;;;13.77;7.88;;;;;;;4.89;100.00;100761.41;5076099;28;20143;-71
2022/12/28 04:37:14;;;;;;;10.73;7.57;;;;;;;4.94;100.00;100761.31;5085588;28;20039;-71
2022/12/28 04:39:41;;;;;;;14.13;7.63;;;;;;;4.99;100.00;100763.88;5078324;28;20064;-69
2022/12/28 04:42:23;;;;;;;14.43;8.35;;;;;;;4.91;100.00;100753.50;5080153;28;20051;-70
2022/12/28 04:44:50;;;;;;;12.52;8.27;;;;;;;4.72;100.00;100729.34;5078305;28;20555;-71
2022/12/28 04:47:16;;;;;;;12.95;8.35;;;;;;;4.86;100.00;100755.38;5078320;28;20055;-69
2022/12/28 04:49:43;;;;;;;14.23;8.23;;;;;;;4.86;100.00;100744.88;5088822;28;20071;-70
2022/12/28 04:52:10;;;;;;;13.07;7.95;;;;;;;4.90;100.00;100744.75;5084870;28;20043;-71
2022/12/28 04:54:36;;;;;;;14.50;8.35;;;;;;;4.98;100.00;100742.00;5078867;28;20067;-71
2022/12/28 04:57:03;;;;;;;16.58;8.40;;;;;;;5.00;100.00;100742.84;5082396;28;20044;-70
2022/12/28 04:59:29;;;;;;;15.93;8.20;;;;;;;4.99;100.00;100738.50;5081279;28;20068;-70
2022/12/28 05:01:56;;;;;;;13.10;8.05;;;;;;;5.00;100.00;100727.09;5080281;28;20072;-71
2022/12/28 05:04:22;;;;;;;11.13;7.40;;;;;;;5.09;100.00;100734.78;5083349;28;20093;-71
2022/12/28 05:06:49;;;;;;;10.70;7.57;;;;;;;5.15;100.00;100728.56;5085323;28;20453;-72
2022/12/28 05:09:18;;;;;;;12.77;7.55;;;;;;;5.12;100.00;100726.88;5084172;28;20127;-72
2022/12/28 05:11:44;;;;;;;12.73;8.15;;;;;;;5.10;100.00;100725.16;5081092;28;20568;-72
2022/12/28 05:14:11;;;;;;;12.93;8.27;;;;;;;5.04;100.00;100723.50;5093550;28;20083;-72
2022/12/28 05:16:38;;;;;;;14.15;8.13;;;;;;;5.03;100.00;100719.19;5084798;28;20453;-70
2022/12/28 05:19:04;;;;;;;11.40;7.50;;;;;;;5.02;100.00;100709.56;5083608;27;20044;-70
2022/12/28 05:21:31;;;;;;;12.23;7.78;;;;;;;5.02;100.00;100706.94;5082004;28;20748;-70
2022/12/28 05:23:57;;;;;;;12.38;7.90;;;;;;;5.01;100.00;100709.59;5087873;28;20043;-70
2022/12/28 05:26:27;;;;;;;10.95;7.43;;;;;;;5.03;100.00;100713.06;5082724;28;20161;-71
2022/12/28 05:28:55;;;;;;;11.68;7.47;;;;;;;5.00;100.00;100700.00;5087653;28;20222;-70
2022/12/28 05:31:22;;;;;;;11.95;7.32;;;;;;;4.93;100.00;100673.00;5085685;28;20058;-71
2022/12/28 05:33:49;;;;;;;11.18;7.30;;;;;;;5.09;100.00;100694.56;5086523;28;20067;-70
2022/12/28 05:36:18;;;;;;;11.50;7.43;;;;;;;5.04;100.00;100692.00;5091673;28;20043;-71
2022/12/28 05:38:45;;;;;;;13.35;6.82;;;;;;;5.07;100.00;100691.09;5083850;28;20054;-71
2022/12/28 05:41:13;;;;;;;11.02;6.82;;;;;;;5.12;100.00;100682.25;5076636;28;20044;-70
2022/12/28 05:43:42;;;;;;;12.23;6.40;;;;;;;5.14;100.00;100683.06;5096002;28;20071;-71
2022/12/28 05:46:12;;;;;;;8.63;6.47;;;;;;;5.18;100.00;100673.38;5082970;28;20040;-71
2022/12/28 05:48:40;;;;;;;10.03;6.87;;;;;;;5.16;100.00;100660.28;5084117;28;20106;-71
2022/12/28 05:51:10;;;;;;;12.35;7.00;;;;;;;5.19;100.00;100665.47;5077085;28;20127;-71
2022/12/28 05:53:37;;;;;;;14.43;6.43;;;;;;;5.22;100.00;100668.03;5083503;28;20092;-70
2022/12/28 05:56:06;;;;;;;8.85;6.50;;;;;;;5.25;100.00;100649.59;5088835;28;20060;-71
2022/12/28 05:58:40;;;;;;;10.48;6.50;;;;;;;5.30;100.00;100652.13;5083791;28;20052;-71
2022/12/28 06:01:15;;;;;;;12.90;6.07;;;;;;;5.35;100.00;100652.03;5083103;28;20048;-71
2022/12/28 06:03:43;;;;;;;8.73;6.40;;;;;;;5.46;100.00;100636.91;5086148;28;20048;-71
2022/12/28 06:06:12;;;;;;;9.88;5.80;;;;;;;5.47;100.00;100638.63;5087351;28;20044;-72
2022/12/28 06:08:40;;;;;;;7.70;5.72;;;;;;;5.21;100.00;100584.91;5087897;28;21223;-71
2022/12/28 06:11:09;;;;;;;11.10;6.28;;;;;;;5.51;100.00;100627.16;5073221;28;20138;-71
2022/12/28 06:13:37;;;;;;;8.77;5.90;;;;;;;5.52;100.00;100628.84;5074233;28;20135;-72
2022/12/28 06:16:08;;;;;;;8.15;5.82;;;;;;;5.39;100.00;100607.25;5094361;28;20047;-71
2022/12/28 06:18:35;;;;;;;9.38;5.63;;;;;;;5.54;100.00;100619.19;5086459;28;20052;-72
2022/12/28 06:21:07;;;;;;;7.00;5.55;;;;;;;5.60;100.00;100625.19;5082794;28;20423;-71
2022/12/28 06:23:33;;;;;;;8.15;5.38;;;;;;;5.62;100.00;100626.00;5075822;28;20070;-71
2022/12/28 06:26:01;;;;;;;8.43;5.40;;;;;;;5.62;100.00;100620.75;5087291;28;20131;-71
2022/12/28 06:28:28;;;;;;;9.25;5.10;;;;;;;5.67;100.00;100620.63;5078104;27;20051;-71
2022/12/28 06:31:28;;;;;;;8.88;5.45;;;;;;;5.71;100.00;100627.53;5079062;28;20072;-71
2022/12/28 06:33:57;;;;;;;7.60;5.30;;;;;;;5.71;100.00;100619.66;5078784;28;20044;-70
2022/12/28 06:36:25;;;;;;;8.95;4.88;;;;;;;5.75;100.00;100615.19;5084547;28;20505;-71
2022/12/28 06:38:54;;;;;;;9.45;5.18;;;;;;;5.77;100.00;100619.53;5077602;28;20152;-70
2022/12/28 06:41:21;;;;;;;12.25;5.10;;;;;;;5.78;100.00;100612.50;5085546;28;20048;-71
2022/12/28 06:43:49;;;;;;;10.02;5.00;;;;;;;5.70;100.00;100586.41;5085120;28;20670;-71
2022/12/28 06:46:17;;;;;;;8.57;4.25;;;;;;;5.95;100.00;100607.75;5082959;28;20102;-71
2022/12/28 06:48:44;;;;;;;9.13;4.63;;;;;;;5.99;100.00;100604.97;5086513;28;20068;-72
2022/12/28 06:51:21;;;;;;;8.27;4.80;;;;;;;5.99;100.00;100602.34;5078690;28;20678;-72
2022/12/28 06:53:49;;;;;;;7.43;4.60;;;;;;;6.00;100.00;100597.97;5080190;28;20040;-71
2022/12/28 06:56:36;;;;;;;6.57;4.30;;;;;;;6.04;100.00;100591.72;5080113;28;20515;-72
2022/12/28 06:59:04;;;;;;;6.43;4.22;;;;;;;5.91;100.00;100572.78;5082107;28;20127;-71
2022/12/28 07:01:36;;;;;;;8.93;4.63;;;;;;;6.07;100.00;100589.03;5092649;28;20738;-71
2022/12/28 07:04:05;;;;;;;9.20;4.43;;;;;;;6.07;100.00;100580.28;5084304;28;20055;-71
2022/12/28 07:06:38;;;;;;;8.43;4.55;;;;;;;6.06;100.00;100589.06;5081543;28;20063;-72
2022/12/28 07:09:08;;;;;;;8.98;4.60;;;;;;;6.04;100.00;100589.09;5084751;28;20052;-71
2022/12/28 07:11:36;;;;;;;9.45;4.40;;;;;;;6.01;100.00;100593.56;5073154;28;20056;-71
2022/12/28 07:14:03;;;;;;;8.73;4.38;;;;;;;5.93;100.00;100578.88;5082171;28;20083;-71
2022/12/28 07:16:30;;;;;;;7.07;4.35;;;;;;;5.94;100.00;100585.84;5084642;28;20155;-71
2022/12/28 07:18:57;;;;;;;5.82;4.03;;;;;;;5.96;100.00;100577.94;5086704;28;20047;-71
2022/12/28 07:21:26;;;;;;;8.88;4.90;;;;;;;5.81;100.00;100560.75;5080379;28;20507;-71
2022/12/28 07:23:54;;;;;;;7.13;4.40;;;;;;;5.76;100.00;100549.47;5087507;28;20135;-71
2022/12/28 07:26:23;;;;;;;7.38;4.65;;;;;;;5.79;100.00;100546.78;5077684;28;20119;-71
2022/12/28 07:28:53;;;;;;;7.40;4.70;;;;;;;5.94;100.00;100574.47;5076746;28;20039;-71
2022/12/28 07:31:22;;;;;;;6.78;4.60;;;;;;;5.93;100.00;100578.88;5073970;28;20049;-70
2022/12/28 07:33:50;;;;;;;7.97;4.22;;;;;;;5.98;100.00;100584.00;5082678;28;20151;-71
2022/12/28 07:36:18;;;;;;;5.20;4.20;;;;;;;5.99;100.00;100575.19;5079298;28;20060;-71
2022/12/28 07:38:45;;;;;;;6.38;4.25;;;;;;;5.94;100.00;100556.94;5080938;28;20048;-71
2022/12/28 07:41:17;;;;;;;8.10;4.47;;;;;;;5.99;100.00;100575.19;5081906;28;20075;-71
2022/12/28 07:43:44;;;;;;;9.13;4.75;;;;;;;6.04;100.00;100583.84;5083696;28;20484;-71
2022/12/28 07:46:16;;;;;;;6.13;4.18;;;;;;;6.08;100.00;100569.72;5081308;28;20119;-71
2022/12/28 07:48:43;;;;;;;7.00;4.32;;;;;;;6.08;100.00;100566.22;5079280;28;20088;-72
2022/12/28 07:51:26;;;;;;;6.82;4.13;;;;;;;6.06;100.00;100566.28;5082248;28;20076;-70
2022/12/28 07:53:54;;;;;;;9.20;4.60;;;;;;;6.11;100.00;100569.66;5086960;28;20052;-71
2022/12/28 07:56:22;;;;;;;4.95;3.88;;;;;;;6.11;100.00;100566.16;5078179;28;20044;-71
2022/12/28 07:58:51;;;;;;;7.10;3.97;;;;;;;6.15;100.00;100563.38;5083724;28;20044;-71
2022/12/28 08:01:20;;;;;;;8.25;4.57;;;;;;;6.13;100.00;100554.72;5080045;28;20416;-71
2022/12/28 08:03:47;;;;;;;7.07;4.05;;;;;;;6.06;100.00;100539.97;5086740;28;20061;-72
2022/12/28 08:06:22;;;;;;;6.80;4.18;;;;;;;6.16;100.00;100553.72;5073079;28;20117;-71
2022/12/28 08:08:51;;;;;;;7.30;4.70;;;;;;;6.12;100.00;100546.84;5084686;28;20058;-71
2022/12/28 08:11:20;;;;;;;7.95;4.05;;;;;;;6.10;100.00;100538.13;5082573;27;20044;-70
2022/12/28 08:13:50;;;;;;;6.93;3.73;;;;;;;6.15;100.00;100541.50;5083060;28;20906;-71
2022/12/28 08:16:18;;;;;;;5.43;3.72;;;;;;;6.09;100.00;100528.53;5081478;28;20137;-71
2022/12/28 08:18:46;;;;;;;6.43;3.67;;;;;;;6.19;100.00;100540.50;5089483;28;20523;-73
2022/12/28 08:21:15;;;;;;;6.38;3.70;;;;;;;6.18;100.00;100534.38;5087775;28;20097;-70
2022/12/28 08:23:42;;;;;;;8.70;4.05;;;;;;;6.18;100.00;100539.66;5094712;27;20131;-73
2022/12/28 08:26:17;;;;;;;8.23;3.70;;;;;;;6.18;100.00;100529.13;5086433;28;20058;-71
2022/12/28 08:28:45;;;;;;;5.40;3.65;;;;;;;6.18;100.00;100528.28;5084988;28;20052;-72
2022/12/28 08:31:17;;;;;;;7.55;3.90;;;;;;;6.22;100.00;100524.66;5087280;28;20472;-72
2022/12/28 08:33:45;;;;;;;9.10;3.70;;;;;;;6.35;100.00;100526.03;5089382;28;20136;-72
2022/12/28 08:36:12;;;;;;;8.73;4.00;;;;;;;6.50;100.00;100530.00;5080552;28;20055;-70
2022/12/28 08:38:40;;;;;;;5.95;4.32;;;;;;;6.62;100.00;100522.63;5080206;28;20036;-72
2022/12/28 08:41:11;;;;;;;4.80;3.58;;;;;;;6.64;100.00;100533.97;5087331;28;20086;-71
2022/12/28 08:43:38;;;;;;;5.55;3.38;;;;;;;6.56;100.00;100527.22;5084169;28;20059;-69
2022/12/28 08:46:07;;;;;;;6.75;3.15;;;;;;;6.61;100.00;100527.97;5083190;28;20062;-71
2022/12/28 08:48:34;;;;;;;5.78;2.88;;;;;;;6.62;100.00;100524.41;5084583;28;20121;-71
2022/12/28 08:51:05;;;;;;;7.95;4.13;;;;;;;6.67;100.00;100525.13;5075511;28;20047;-71
2022/12/28 08:53:32;;;;;;;5.50;2.55;;;;;;;6.60;100.00;100506.06;5074950;28;20099;-71
2022/12/28 08:56:29;;;;;;;8.05;3.45;;;;;;;6.67;100.00;100510.22;5075045;28;20071;-71
2022/12/28 08:58:56;;;;;;;10.77;3.40;;;;;;;6.84;100.00;100535.19;5074855;28;20048;-71
2022/12/28 09:01:26;;;;;;;8.05;3.38;;;;;;;6.82;100.00;100522.06;5074750;28;20123;-70
2022/12/28 09:03:55;;;;;;;8.27;3.25;;;;;;;6.92;100.00;100541.97;5081457;28;20050;-72
2022/12/28 09:06:29;;;;;;;5.95;2.72;;;;;;;6.98;100.00;100522.47;5085418;28;20047;-70
2022/12/28 09:08:57;;;;;;;8.65;3.50;;;;;;;7.04;100.00;100538.94;5085331;28;20478;-70
2022/12/28 09:11:34;;;;;;;9.70;3.55;;;;;;;7.06;100.00;100551.22;5091973;28;20059;-71
2022/12/28 09:14:03;;;;;;;11.65;3.38;;;;;;;6.88;100.00;100521.88;5076125;28;20063;-71
2022/12/28 09:16:30;;;;;;;5.30;3.22;;;;;;;7.11;100.00;100549.28;5071725;28;20056;-71
2022/12/28 09:18:59;;;;;;;8.93;3.63;;;;;;;7.17;100.00;100551.75;5082774;28;20044;-71
2022/12/28 09:21:28;;;;;;;6.15;3.15;;;;;;;7.29;100.00;100556.63;5078057;28;20063;-72
2022/12/28 09:23:55;;;;;;;6.63;3.10;;;;;;;7.38;100.00;100546.69;5075891;28;20097;-71
2022/12/28 09:26:27;;;;;;;5.53;2.78;;;;;;;7.48;100.00;100551.66;5084177;28;20041;-72
2022/12/28 09:28:56;;;;;;;4.45;2.80;;;;;;;7.52;100.00;100545.38;5075446;28;20045;-73
2022/12/28 09:31:25;;;;;;;6.50;2.92;;;;;;;7.53;100.00;100545.31;5078735;27;20463;-71
2022/12/28 09:34:02;;;;;;;4.03;2.67;;;;;;;7.54;100.00;100543.56;5077698;28;20050;-71
2022/12/28 09:36:48;;;;;;;4.32;2.92;;;;;;;7.58;100.00;100540.75;5075279;28;20052;-71
2022/12/28 09:39:17;;;;;;;7.95;3.38;;;;;;;7.68;100.00;100558.00;5089188;28;20044;-71
2022/12/28 09:41:50;;;;;;;4.77;3.03;;;;;;;7.75;100.00;100548.97;5088403;28;20078;-72
2022/12/28 09:44:31;;;;;;;7.60;3.25;;;;;;;7.89;100.00;100539.72;5080087;28;20052;-70
2022/12/28 09:47:07;;;;;;;3.78;2.90;;;;;;;7.94;100.00;100546.59;5077467;28;20429;-71
2022/12/28 09:49:45;;;;;;;6.40;2.90;;;;;;;7.98;100.00;100540.31;5076761;28;20048;-71
2022/12/28 09:52:20;;;;;;;5.30;2.83;;;;;;;7.99;100.00;100547.31;5081491;28;20049;-71
2022/12/28 09:54:47;;;;;;;5.53;2.72;;;;;;;7.93;100.00;100520.28;5081198;28;20067;-71
2022/12/28 09:57:15;;;;;;;4.82;2.72;;;;;;;8.15;100.00;100549.41;5077335;28;20046;-71
2022/12/28 09:59:43;;;;;;;5.90;2.97;;;;;;;8.23;100.00;100548.22;5084920;28;20258;-74
2022/12/28 10:02:28;;;;;;;7.90;3.80;;;;;;;8.37;100.00;100542.50;5078777;28;20058;-70
2022/12/28 10:04:54;;;;;;;7.25;2.70;;;;;;;8.60;100.00;100539.03;5070433;28;20349;-71
2022/12/28 10:07:22;;;;;;;8.55;3.10;;;;;;;8.73;100.00;100527.97;5070255;28;20054;-72
2022/12/28 10:09:48;;;;;;;5.65;2.60;;;;;;;8.85;100.00;100533.69;5069791;28;21657;-72
2022/12/28 10:12:19;;;;;;;4.78;2.60;;;;;;;8.72;100.00;100505.13;5074013;28;20120;-70
2022/12/28 10:14:47;;;;;;;3.70;2.20;;;;;;;8.93;100.00;100536.94;5081508;28;20566;-73
2022/12/28 10:17:19;;;;;;;3.55;2.20;;;;;;;8.97;100.00;100533.25;5076430;28;20079;-70
2022/12/28 10:19:47;;;;;;;4.35;2.28;;;;;;;8.99;100.00;100534.03;5079914;28;20130;-71
2022/12/28 10:22:17;;;;;;;5.63;2.33;;;;;;;9.00;100.00;100522.53;5077897;28;20055;-72
2022/12/28 10:24:45;;;;;;;7.20;2.40;;;;;;;8.99;100.00;100516.41;5081694;28;20036;-72
2022/12/28 10:27:23;;;;;;;6.45;2.58;;;;;;;8.88;100.00;100497.47;5088834;28;20040;-70
2022/12/28 10:29:52;;;;;;;4.50;2.42;;;;;;;9.06;100.00;100517.03;5081044;28;20080;-71
2022/12/28 10:32:19;;;;;;;5.97;2.92;;;;;;;9.01;100.00;100519.00;5080287;28;20098;-72
2022/12/28 10:34:53;;;;;;;6.32;2.90;;;;;;;8.92;100.00;100511.44;5080120;28;20406;-72
2022/12/28 10:37:20;;;;;;;6.35;3.00;;;;;;;8.93;100.00;100519.28;5079521;28;20067;-72
2022/12/28 10:40:20;;;;;;;4.93;2.38;;;;;;;8.98;100.00;100505.91;5086700;28;20056;-70
2022/12/28 10:42:50;;;;;;;7.70;2.33;;;;;;;8.97;100.00;100506.84;5086388;28;20043;-72
2022/12/28 10:45:21;;;;;;;6.22;2.70;;;;;;;8.95;100.00;100503.41;5087355;28;20130;-72
2022/12/28 10:47:51;;;;;;;4.40;2.35;;;;;;;8.75;100.00;100478.59;5078769;28;20054;-72
2022/12/28 10:50:36;;;;;;;3.10;2.40;;;;;;;8.89;100.00;100498.34;5079336;28;20637;-72
2022/12/28 10:53:14;;;;;;;6.68;2.72;;;;;;;8.93;100.00;100500.81;5081860;28;20490;-73
2022/12/28 10:55:43;;;;;;;4.57;2.58;;;;;;;8.97;100.00;100491.00;5084138;28;20052;-71
2022/12/28 10:58:20;;;;;;;5.40;2.67;;;;;;;8.97;100.00;100497.09;5080635;28;20135;-71
2022/12/28 11:01:06;;;;;;;5.15;2.63;;;;;;;8.99;100.00;100490.00;5082754;28;20052;-72
2022/12/28 11:03:36;;;;;;;6.47;2.80;;;;;;;9.01;100.00;100495.22;5085054;28;20135;-71
2022/12/28 11:06:18;;;;;;;5.60;2.60;;;;;;;9.09;100.00;100488.72;5087669;28;20512;-72
2022/12/28 11:09:14;;;;;;;4.05;2.58;;;;;;;9.09;100.00;100486.09;5083394;28;20144;-71
2022/12/28 11:11:43;;;;;;;6.15;3.20;;;;;;;9.06;100.00;100478.28;5086591;28;20040;-70
2022/12/28 11:14:33;;;;;;;5.45;3.25;;;;;;;9.03;100.00;100470.47;5087311;28;20186;-70
2022/12/28 11:17:22;;;;;;;5.65;4.50;;;;;;;9.08;100.00;100468.50;5087402;28;20032;-70
2022/12/28 11:19:52;;;;;;;6.05;3.35;;;;;;;8.96;100.00;100444.38;5081912;28;20628;-71
2022/12/28 11:22:24;;;;;;;7.72;4.40;;;;;;;9.15;100.00;100469.13;5090200;28;20044;-71
2022/12/28 11:24:51;;;;;;;6.60;3.42;;;;;;;9.01;100.00;100430.03;5086023;28;20070;-71
2022/12/28 11:27:21;;;;;;;5.60;3.70;;;;;;;9.07;100.00;100450.09;5087550;28;20134;-71
2022/12/28 11:29:51;;;;;;;10.07;3.50;;;;;;;9.06;100.00;100453.63;5072965;28;20040;-71
2022/12/28 11:32:24;;;;;;;8.05;3.15;;;;;;;8.85;100.00;100438.63;5084426;28;20044;-71
2022/12/28 11:34:53;;;;;;;6.82;3.92;;;;;;;8.84;100.00;100450.09;5086435;28;20048;-71
2022/12/28 11:37:19;;;;;;;7.68;3.83;;;;;;;8.77;100.00;100436.31;5087416;28;20131;-71
2022/12/28 11:39:51;;;;;;;8.38;3.15;;;;;;;8.78;100.00;100428.31;5078690;28;20059;-71
2022/12/28 11:42:35;;;;;;;6.25;2.85;;;;;;;8.78;100.00;100424.81;5082651;28;20044;-70
2022/12/28 11:45:14;;;;;;;4.22;2.30;;;;;;;8.84;100.00;100416.66;5081553;28;20052;-72
2022/12/28 11:47:41;;;;;;;6.63;4.38;;;;;;;8.76;100.00;100394.97;5085036;28;20060;-70
2022/12/28 11:50:35;;;;;;;6.18;2.45;;;;;;;9.04;100.00;100402.66;5083196;28;20132;-71
2022/12/28 11:53:04;;;;;;;5.05;2.58;;;;;;;9.20;100.00;100397.59;5072968;28;20052;-71
2022/12/28 11:55:46;;;;;;;4.78;2.42;;;;;;;9.31;100.00;100396.22;5092959;28;20044;-72
2022/12/28 11:58:41;;;;;;;5.63;2.30;;;;;;;9.37;100.00;100389.84;5089149;28;20056;-71
2022/12/28 12:01:26;;;;;;;7.13;2.50;;;;;;;9.43;100.00;100390.44;5090749;28;20421;-71
2022/12/28 12:03:58;;;;;;;4.68;2.40;;;;;;;9.53;100.00;100390.03;5088992;28;20055;-71
2022/12/28 12:06:40;;;;;;;5.35;2.67;;;;;;;9.67;100.00;100388.53;5094597;28;20492;-71